Terminal Aerodrome Forecast (TAF)

TAF


TAF for:NVSC (Vanua Lava/Sola Airport) issued at 0430 UTC 25 May 2017
Text:TAF NVSC 250430Z 2506/2606 09005KT 9999 SCT020
Forecast period:0600 UTC 25 May 2017 to 0600 UTC 26 May 2017
Forecast type:FROM: standard forecast or significant change
Winds:from the E (90 degrees) at 6 MPH (5 knots; 2.6 m/s)
Visibility:6 or more sm (10+ km)
Ceiling:at least 12,000 feet AGL
Clouds: scattered clouds at 2000 feet AGL

TAF


TAF for:NVSG (Ambae/Longana Airport) issued at 0430 UTC 25 May 2017
Text:TAF NVSG 250430Z 2506/2606 04005KT 9999 SCT020
Forecast period:0600 UTC 25 May 2017 to 0600 UTC 26 May 2017
Forecast type:FROM: standard forecast or significant change
Winds:from the NE (40 degrees) at 6 MPH (5 knots; 2.6 m/s)
Visibility:6 or more sm (10+ km)
Ceiling:at least 12,000 feet AGL
Clouds: scattered clouds at 2000 feet AGL

TAF


TAF for:NVSS (Santo/Pekoa International Airport) issued at 0430 UTC 25 May 2017
Text:TAF NVSS 250430Z 2506/2606 12005KT 9999 SCT025
Forecast period:0600 UTC 25 May 2017 to 0600 UTC 26 May 2017
Forecast type:FROM: standard forecast or significant change
Winds:from the ESE (120 degrees) at 6 MPH (5 knots; 2.6 m/s)
Visibility:6 or more sm (10+ km)
Ceiling:at least 12,000 feet AGL
Clouds: scattered clouds at 2500 feet AGL

TAF


TAF for:NVSL (Malekula/Lamap Airport) issued at 0430 UTC 25 May 2017
Text:TAF NVSL 250430Z 2506/2606 10005KT 9999 SCT025
Forecast period:0600 UTC 25 May 2017 to 0600 UTC 26 May 2017
Forecast type:FROM: standard forecast or significant change
Winds:from the E (100 degrees) at 6 MPH (5 knots; 2.6 m/s)
Visibility:6 or more sm (10+ km)
Ceiling:at least 12,000 feet AGL
Clouds: scattered clouds at 2500 feet AGL

TAF


TAF for:NVVV (Efate/Bauerfield International Airport) issued at 0430 UTC 25 May 2017
Text:TAF NVVV 250430Z 2506/2606 31005KT 9999 SCT020
Forecast period:0600 UTC 25 May 2017 to 0600 UTC 26 May 2017
Forecast type:FROM: standard forecast or significant change
Winds:from the NW (310 degrees) at 6 MPH (5 knots; 2.6 m/s)
Visibility:6 or more sm (10+ km)
Ceiling:at least 12,000 feet AGL
Clouds: scattered clouds at 2000 feet AGL
Text:PROB30 INTER 2506/2509 9000 -SHRA BKN018
Forecast period:0600 to 0900 UTC 25 May 2017
Forecast type:TEMPORARY: The following changes expected for less than half the time period
Visibility: 6 sm ( 9 km)
Ceiling:1800 feet AGL
Clouds: broken clouds at 1800 feet AGL
Weather:-SHRA (light rain showers)

TAF


TAF for:NVVW (Tanna/WhiteGrass International Airport) issued at 0430 UTC 25 May 2017
Text:TAF NVVW 250430Z 2506/2606 08005KT 9999 SCT020 OVC110 INTER 2506/2512 8000 SHRA FEW012 BKN018 OVC090
Forecast period:0600 UTC 25 May 2017 to 0600 UTC 26 May 2017
Forecast type:FROM: standard forecast or significant change
Winds:from the E (80 degrees) at 6 MPH (5 knots; 2.6 m/s)
Visibility:6 or more sm (10+ km)
Ceiling:11000 feet AGL
Clouds: scattered clouds at 2000 feet AGL, overcast cloud deck at 11000 feet AGL
Text:
Forecast period:0600 to 1200 UTC 25 May 2017
Forecast type:TEMPORARY: The following changes expected for less than half the time period
Visibility: 5 sm ( 8 km)
Ceiling:1800 feet AGL
Clouds: few clouds at 1200 feet AGL, broken clouds at 1800 feet AGL, overcast cloud deck at 9000 feet AGL
Weather:SHRA (rain showers)

TAF


TAF for:NVVA (Aneityum/Anelcahuat Airport) issued at 0430 UTC 25 May 2017
Text:TAF NVVA 250430Z 2506/2606 08005KT 9999 SCT020 OVC100 INTER 2506/2512 8000 SHRA FEW012 BKN018 FEW022TCU OVC090
Forecast period:0600 UTC 25 May 2017 to 0600 UTC 26 May 2017
Forecast type:FROM: standard forecast or significant change
Winds:from the E (80 degrees) at 6 MPH (5 knots; 2.6 m/s)
Visibility:6 or more sm (10+ km)
Ceiling:10000 feet AGL
Clouds: scattered clouds at 2000 feet AGL, overcast cloud deck at 10000 feet AGL
Text:
Forecast period:0600 to 1200 UTC 25 May 2017
Forecast type:TEMPORARY: The following changes expected for less than half the time period
Visibility: 5 sm ( 8 km)
Ceiling:1800 feet AGL
Clouds: few clouds at 1200 feet AGL, broken clouds at 1800 feet AGL, few clouds at 2200 feet AGL
Weather:SHRA (rain showers)

TAF

ADDS TAF Data INFO
IDs: Format: Raw Decoded Include METARs

Data at: 0655 UTC 25 May 2017

TAF NVSC 250430Z 2506/2606 09005KT 9999 SCT020
 TAF NVSG 250430Z 2506/2606 04005KT 9999 SCT020
 TAF NVSS 250430Z 2506/2606 12005KT 9999 SCT025
 TAF NVSL 250430Z 2506/2606 10005KT 9999 SCT025
 TAF NVVV 250430Z 2506/2606 31005KT 9999 SCT020
  PROB30 INTER 2506/2509 9000 -SHRA BKN018

 TAF NVVW 250430Z 2506/2606 08005KT 9999 SCT020 OVC110 INTER 2506/2512 8000 SHRA FEW012 BKN018 OVC090
 TAF NVVA 250430Z 2506/2606 08005KT 9999 SCT020 OVC100 INTER 2506/2512 8000 SHRA FEW012 BKN018 FEW022TCU OVC090